sensor_id;sensor_type;location;lat;lon;timestamp;P1;durP1;ratioP1;P2;durP2;ratioP2
25627;SDS011;40915;50.826;4.356;2023-09-19T00:01:19;10.32;;;2.58;;
25627;SDS011;40915;50.826;4.356;2023-09-19T00:03:45;11.10;;;2.00;;
25627;SDS011;40915;50.826;4.356;2023-09-19T00:06:11;10.82;;;2.63;;
25627;SDS011;40915;50.826;4.356;2023-09-19T00:08:40;8.55;;;1.92;;
25627;SDS011;40915;50.826;4.356;2023-09-19T00:11:09;11.07;;;2.38;;
25627;SDS011;40915;50.826;4.356;2023-09-19T00:13:36;9.88;;;2.40;;
25627;SDS011;40915;50.826;4.356;2023-09-19T00:16:07;13.95;;;2.40;;
25627;SDS011;40915;50.826;4.356;2023-09-19T00:18:39;11.32;;;2.25;;
25627;SDS011;40915;50.826;4.356;2023-09-19T00:21:04;9.15;;;2.08;;
25627;SDS011;40915;50.826;4.356;2023-09-19T00:23:30;11.45;;;2.35;;
25627;SDS011;40915;50.826;4.356;2023-09-19T00:25:59;13.15;;;2.50;;
25627;SDS011;40915;50.826;4.356;2023-09-19T00:28:26;11.57;;;2.30;;
25627;SDS011;40915;50.826;4.356;2023-09-19T00:30:52;10.43;;;2.33;;
25627;SDS011;40915;50.826;4.356;2023-09-19T00:33:19;12.80;;;2.03;;
25627;SDS011;40915;50.826;4.356;2023-09-19T00:35:52;10.75;;;2.00;;
25627;SDS011;40915;50.826;4.356;2023-09-19T00:38:19;11.23;;;2.10;;
25627;SDS011;40915;50.826;4.356;2023-09-19T00:40:47;11.82;;;2.42;;
25627;SDS011;40915;50.826;4.356;2023-09-19T00:43:14;10.15;;;2.30;;
25627;SDS011;40915;50.826;4.356;2023-09-19T00:45:42;12.55;;;2.20;;
25627;SDS011;40915;50.826;4.356;2023-09-19T00:48:10;9.23;;;2.33;;
25627;SDS011;40915;50.826;4.356;2023-09-19T00:50:36;12.63;;;2.13;;
25627;SDS011;40915;50.826;4.356;2023-09-19T00:53:06;12.38;;;2.35;;
25627;SDS011;40915;50.826;4.356;2023-09-19T00:55:33;8.60;;;2.25;;
25627;SDS011;40915;50.826;4.356;2023-09-19T00:58:00;10.73;;;2.50;;
25627;SDS011;40915;50.826;4.356;2023-09-19T01:00:25;10.25;;;2.30;;
25627;SDS011;40915;50.826;4.356;2023-09-19T01:02:52;9.38;;;2.22;;
25627;SDS011;40915;50.826;4.356;2023-09-19T01:05:17;11.07;;;2.88;;
25627;SDS011;40915;50.826;4.356;2023-09-19T01:07:43;12.82;;;2.30;;
25627;SDS011;40915;50.826;4.356;2023-09-19T01:10:14;11.60;;;2.33;;
25627;SDS011;40915;50.826;4.356;2023-09-19T01:12:47;9.90;;;2.25;;
25627;SDS011;40915;50.826;4.356;2023-09-19T01:32:13;13.80;;;2.72;;
25627;SDS011;40915;50.826;4.356;2023-09-19T01:34:51;12.60;;;2.40;;
25627;SDS011;40915;50.826;4.356;2023-09-19T01:37:29;12.63;;;2.47;;
25627;SDS011;40915;50.826;4.356;2023-09-19T01:39:57;10.55;;;2.30;;
25627;SDS011;40915;50.826;4.356;2023-09-19T01:42:35;10.07;;;2.13;;
25627;SDS011;40915;50.826;4.356;2023-09-19T01:45:21;10.80;;;2.65;;
25627;SDS011;40915;50.826;4.356;2023-09-19T01:48:05;13.90;;;3.28;;
25627;SDS011;40915;50.826;4.356;2023-09-19T01:53:27;11.55;;;2.88;;
25627;SDS011;40915;50.826;4.356;2023-09-19T01:55:58;11.48;;;2.28;;
25627;SDS011;40915;50.826;4.356;2023-09-19T02:00:52;12.52;;;2.70;;
25627;SDS011;40915;50.826;4.356;2023-09-19T02:03:20;10.32;;;2.55;;
25627;SDS011;40915;50.826;4.356;2023-09-19T02:05:50;12.55;;;2.90;;
25627;SDS011;40915;50.826;4.356;2023-09-19T02:08:17;11.88;;;2.40;;
25627;SDS011;40915;50.826;4.356;2023-09-19T02:10:44;13.07;;;2.55;;
25627;SDS011;40915;50.826;4.356;2023-09-19T02:13:14;14.00;;;2.78;;
25627;SDS011;40915;50.826;4.356;2023-09-19T02:15:42;10.75;;;2.42;;
25627;SDS011;40915;50.826;4.356;2023-09-19T02:18:09;10.73;;;2.50;;
25627;SDS011;40915;50.826;4.356;2023-09-19T02:20:36;11.65;;;2.65;;
25627;SDS011;40915;50.826;4.356;2023-09-19T02:23:03;14.38;;;2.67;;
25627;SDS011;40915;50.826;4.356;2023-09-19T02:25:29;14.25;;;2.88;;
25627;SDS011;40915;50.826;4.356;2023-09-19T02:27:56;9.70;;;2.53;;
25627;SDS011;40915;50.826;4.356;2023-09-19T02:30:23;13.20;;;2.70;;
25627;SDS011;40915;50.826;4.356;2023-09-19T02:32:53;12.27;;;2.45;;
25627;SDS011;40915;50.826;4.356;2023-09-19T02:35:18;10.40;;;2.65;;
25627;SDS011;40915;50.826;4.356;2023-09-19T02:37:47;11.13;;;2.58;;
25627;SDS011;40915;50.826;4.356;2023-09-19T02:40:13;9.80;;;2.70;;
25627;SDS011;40915;50.826;4.356;2023-09-19T02:42:52;10.20;;;2.50;;
25627;SDS011;40915;50.826;4.356;2023-09-19T02:45:19;12.70;;;2.72;;
25627;SDS011;40915;50.826;4.356;2023-09-19T02:47:45;13.32;;;2.63;;
25627;SDS011;40915;50.826;4.356;2023-09-19T02:50:12;13.38;;;2.33;;
25627;SDS011;40915;50.826;4.356;2023-09-19T02:52:38;12.45;;;3.00;;
25627;SDS011;40915;50.826;4.356;2023-09-19T02:55:13;8.23;;;2.65;;
25627;SDS011;40915;50.826;4.356;2023-09-19T02:57:46;11.52;;;2.47;;
25627;SDS011;40915;50.826;4.356;2023-09-19T03:00:12;13.75;;;2.42;;
25627;SDS011;40915;50.826;4.356;2023-09-19T03:02:39;8.40;;;2.00;;
25627;SDS011;40915;50.826;4.356;2023-09-19T03:05:06;9.20;;;2.42;;
25627;SDS011;40915;50.826;4.356;2023-09-19T03:07:32;8.98;;;1.95;;
25627;SDS011;40915;50.826;4.356;2023-09-19T03:09:58;11.30;;;2.70;;
25627;SDS011;40915;50.826;4.356;2023-09-19T03:12:25;12.07;;;2.55;;
25627;SDS011;40915;50.826;4.356;2023-09-19T03:14:54;12.70;;;2.95;;
25627;SDS011;40915;50.826;4.356;2023-09-19T03:17:20;7.85;;;2.08;;
25627;SDS011;40915;50.826;4.356;2023-09-19T03:19:46;12.02;;;2.58;;
25627;SDS011;40915;50.826;4.356;2023-09-19T03:22:13;7.32;;;2.35;;
25627;SDS011;40915;50.826;4.356;2023-09-19T03:24:39;8.30;;;2.40;;
25627;SDS011;40915;50.826;4.356;2023-09-19T03:27:05;12.85;;;2.72;;
25627;SDS011;40915;50.826;4.356;2023-09-19T03:29:30;10.40;;;2.47;;
25627;SDS011;40915;50.826;4.356;2023-09-19T03:31:56;17.90;;;3.17;;
25627;SDS011;40915;50.826;4.356;2023-09-19T03:34:22;8.82;;;2.33;;
25627;SDS011;40915;50.826;4.356;2023-09-19T03:36:47;10.27;;;2.65;;
25627;SDS011;40915;50.826;4.356;2023-09-19T03:39:13;7.30;;;2.28;;
25627;SDS011;40915;50.826;4.356;2023-09-19T03:41:40;8.90;;;2.60;;
25627;SDS011;40915;50.826;4.356;2023-09-19T03:44:06;10.85;;;2.28;;
25627;SDS011;40915;50.826;4.356;2023-09-19T03:46:32;15.10;;;2.78;;
25627;SDS011;40915;50.826;4.356;2023-09-19T03:49:00;14.70;;;3.10;;
25627;SDS011;40915;50.826;4.356;2023-09-19T03:51:26;12.13;;;2.83;;
25627;SDS011;40915;50.826;4.356;2023-09-19T03:53:51;10.20;;;2.63;;
25627;SDS011;40915;50.826;4.356;2023-09-19T03:56:17;15.32;;;2.55;;
25627;SDS011;40915;50.826;4.356;2023-09-19T03:58:42;13.13;;;2.95;;
25627;SDS011;40915;50.826;4.356;2023-09-19T04:01:08;13.48;;;2.80;;
25627;SDS011;40915;50.826;4.356;2023-09-19T04:03:34;10.32;;;2.47;;
25627;SDS011;40915;50.826;4.356;2023-09-19T04:06:10;10.48;;;2.35;;
25627;SDS011;40915;50.826;4.356;2023-09-19T04:08:36;13.85;;;3.00;;
25627;SDS011;40915;50.826;4.356;2023-09-19T04:11:02;11.60;;;2.63;;
25627;SDS011;40915;50.826;4.356;2023-09-19T04:13:28;11.85;;;2.40;;
25627;SDS011;40915;50.826;4.356;2023-09-19T04:15:53;11.82;;;2.58;;
25627;SDS011;40915;50.826;4.356;2023-09-19T04:18:19;8.95;;;2.67;;
25627;SDS011;40915;50.826;4.356;2023-09-19T04:20:49;14.43;;;2.85;;
25627;SDS011;40915;50.826;4.356;2023-09-19T04:23:15;11.85;;;2.72;;
25627;SDS011;40915;50.826;4.356;2023-09-19T04:25:41;9.70;;;2.10;;
25627;SDS011;40915;50.826;4.356;2023-09-19T04:28:06;10.30;;;2.42;;
25627;SDS011;40915;50.826;4.356;2023-09-19T04:30:32;10.40;;;2.45;;
25627;SDS011;40915;50.826;4.356;2023-09-19T04:32:57;15.30;;;2.38;;
25627;SDS011;40915;50.826;4.356;2023-09-19T04:35:24;8.82;;;1.92;;
25627;SDS011;40915;50.826;4.356;2023-09-19T04:37:51;10.90;;;2.30;;
25627;SDS011;40915;50.826;4.356;2023-09-19T04:40:17;13.55;;;2.67;;
25627;SDS011;40915;50.826;4.356;2023-09-19T04:42:44;8.55;;;2.03;;
25627;SDS011;40915;50.826;4.356;2023-09-19T04:45:10;16.80;;;2.70;;
25627;SDS011;40915;50.826;4.356;2023-09-19T04:47:36;14.60;;;2.97;;
25627;SDS011;40915;50.826;4.356;2023-09-19T04:50:04;12.95;;;2.45;;
25627;SDS011;40915;50.826;4.356;2023-09-19T04:52:36;12.23;;;2.40;;
25627;SDS011;40915;50.826;4.356;2023-09-19T04:55:04;13.10;;;3.20;;
25627;SDS011;40915;50.826;4.356;2023-09-19T04:57:30;13.93;;;2.38;;
25627;SDS011;40915;50.826;4.356;2023-09-19T04:59:56;11.88;;;2.70;;
25627;SDS011;40915;50.826;4.356;2023-09-19T05:02:22;14.15;;;2.13;;
25627;SDS011;40915;50.826;4.356;2023-09-19T05:04:48;16.55;;;3.00;;
25627;SDS011;40915;50.826;4.356;2023-09-19T05:07:13;13.10;;;2.58;;
25627;SDS011;40915;50.826;4.356;2023-09-19T05:09:39;15.70;;;2.20;;
25627;SDS011;40915;50.826;4.356;2023-09-19T05:12:07;12.50;;;2.58;;
25627;SDS011;40915;50.826;4.356;2023-09-19T05:14:34;12.57;;;3.05;;
25627;SDS011;40915;50.826;4.356;2023-09-19T05:17:00;13.73;;;2.20;;
25627;SDS011;40915;50.826;4.356;2023-09-19T05:19:25;12.38;;;2.70;;
25627;SDS011;40915;50.826;4.356;2023-09-19T05:21:52;11.80;;;2.90;;
25627;SDS011;40915;50.826;4.356;2023-09-19T05:24:17;13.27;;;2.45;;
25627;SDS011;40915;50.826;4.356;2023-09-19T05:26:43;10.80;;;2.58;;
25627;SDS011;40915;50.826;4.356;2023-09-19T05:29:09;12.93;;;2.55;;
25627;SDS011;40915;50.826;4.356;2023-09-19T05:31:35;12.27;;;2.50;;
25627;SDS011;40915;50.826;4.356;2023-09-19T05:34:05;15.15;;;2.53;;
25627;SDS011;40915;50.826;4.356;2023-09-19T05:36:31;11.55;;;2.55;;
25627;SDS011;40915;50.826;4.356;2023-09-19T05:38:57;14.70;;;2.90;;
25627;SDS011;40915;50.826;4.356;2023-09-19T05:41:22;19.60;;;2.50;;
25627;SDS011;40915;50.826;4.356;2023-09-19T05:43:49;11.65;;;2.55;;
25627;SDS011;40915;50.826;4.356;2023-09-19T05:46:15;11.27;;;2.22;;
25627;SDS011;40915;50.826;4.356;2023-09-19T05:48:41;12.27;;;2.10;;
25627;SDS011;40915;50.826;4.356;2023-09-19T05:51:09;13.98;;;2.60;;
25627;SDS011;40915;50.826;4.356;2023-09-19T05:53:35;13.82;;;2.88;;
25627;SDS011;40915;50.826;4.356;2023-09-19T05:56:00;14.32;;;2.65;;
25627;SDS011;40915;50.826;4.356;2023-09-19T05:58:26;11.55;;;2.55;;
25627;SDS011;40915;50.826;4.356;2023-09-19T06:00:52;14.65;;;2.50;;
25627;SDS011;40915;50.826;4.356;2023-09-19T06:03:17;12.40;;;2.83;;
25627;SDS011;40915;50.826;4.356;2023-09-19T06:05:44;11.88;;;2.50;;
25627;SDS011;40915;50.826;4.356;2023-09-19T06:08:11;8.55;;;1.80;;
25627;SDS011;40915;50.826;4.356;2023-09-19T06:10:36;11.88;;;2.83;;
25627;SDS011;40915;50.826;4.356;2023-09-19T06:13:03;10.68;;;2.55;;
25627;SDS011;40915;50.826;4.356;2023-09-19T06:15:34;9.20;;;2.42;;
25627;SDS011;40915;50.826;4.356;2023-09-19T06:18:01;9.52;;;2.50;;
25627;SDS011;40915;50.826;4.356;2023-09-19T06:20:27;13.85;;;2.60;;
25627;SDS011;40915;50.826;4.356;2023-09-19T06:22:53;13.20;;;3.03;;
25627;SDS011;40915;50.826;4.356;2023-09-19T06:25:20;11.10;;;3.30;;
25627;SDS011;40915;50.826;4.356;2023-09-19T06:27:50;8.52;;;2.03;;
25627;SDS011;40915;50.826;4.356;2023-09-19T06:30:19;10.80;;;2.60;;
25627;SDS011;40915;50.826;4.356;2023-09-19T06:32:45;11.45;;;2.25;;
25627;SDS011;40915;50.826;4.356;2023-09-19T06:35:11;10.27;;;2.13;;
25627;SDS011;40915;50.826;4.356;2023-09-19T06:37:41;13.63;;;3.60;;
25627;SDS011;40915;50.826;4.356;2023-09-19T06:40:11;12.75;;;2.85;;
25627;SDS011;40915;50.826;4.356;2023-09-19T06:42:41;11.68;;;2.15;;
25627;SDS011;40915;50.826;4.356;2023-09-19T06:45:08;12.80;;;2.70;;
25627;SDS011;40915;50.826;4.356;2023-09-19T06:47:36;14.88;;;3.08;;
25627;SDS011;40915;50.826;4.356;2023-09-19T06:50:02;13.90;;;2.60;;
25627;SDS011;40915;50.826;4.356;2023-09-19T06:52:29;14.00;;;2.25;;
25627;SDS011;40915;50.826;4.356;2023-09-19T06:54:55;11.30;;;2.45;;
25627;SDS011;40915;50.826;4.356;2023-09-19T06:57:20;14.85;;;2.95;;
25627;SDS011;40915;50.826;4.356;2023-09-19T06:59:46;18.45;;;3.42;;
25627;SDS011;40915;50.826;4.356;2023-09-19T07:02:11;10.05;;;2.38;;
25627;SDS011;40915;50.826;4.356;2023-09-19T07:04:38;10.70;;;2.88;;
25627;SDS011;40915;50.826;4.356;2023-09-19T07:07:04;9.25;;;2.15;;
25627;SDS011;40915;50.826;4.356;2023-09-19T07:09:30;10.65;;;2.45;;
25627;SDS011;40915;50.826;4.356;2023-09-19T07:11:56;10.82;;;2.50;;
25627;SDS011;40915;50.826;4.356;2023-09-19T07:14:22;11.40;;;2.72;;
25627;SDS011;40915;50.826;4.356;2023-09-19T07:16:48;11.18;;;2.53;;
25627;SDS011;40915;50.826;4.356;2023-09-19T07:19:14;10.18;;;2.10;;
25627;SDS011;40915;50.826;4.356;2023-09-19T07:21:40;9.70;;;2.45;;
25627;SDS011;40915;50.826;4.356;2023-09-19T07:24:07;11.75;;;2.22;;
25627;SDS011;40915;50.826;4.356;2023-09-19T07:26:33;11.77;;;3.13;;
25627;SDS011;40915;50.826;4.356;2023-09-19T07:28:59;10.25;;;2.30;;
25627;SDS011;40915;50.826;4.356;2023-09-19T07:31:25;14.73;;;2.65;;
25627;SDS011;40915;50.826;4.356;2023-09-19T07:33:52;14.00;;;3.45;;
25627;SDS011;40915;50.826;4.356;2023-09-19T07:36:18;9.10;;;2.17;;
25627;SDS011;40915;50.826;4.356;2023-09-19T07:38:45;13.00;;;2.97;;
25627;SDS011;40915;50.826;4.356;2023-09-19T07:41:10;11.77;;;2.30;;
25627;SDS011;40915;50.826;4.356;2023-09-19T07:43:36;9.13;;;2.22;;
25627;SDS011;40915;50.826;4.356;2023-09-19T07:46:07;10.38;;;2.35;;
25627;SDS011;40915;50.826;4.356;2023-09-19T07:48:34;12.50;;;2.38;;
25627;SDS011;40915;50.826;4.356;2023-09-19T07:51:01;12.50;;;2.72;;
25627;SDS011;40915;50.826;4.356;2023-09-19T07:53:31;12.65;;;3.08;;
25627;SDS011;40915;50.826;4.356;2023-09-19T07:56:03;11.60;;;3.15;;
25627;SDS011;40915;50.826;4.356;2023-09-19T07:58:30;13.73;;;2.97;;
25627;SDS011;40915;50.826;4.356;2023-09-19T08:00:56;13.02;;;2.90;;
25627;SDS011;40915;50.826;4.356;2023-09-19T08:03:27;15.90;;;2.80;;
25627;SDS011;40915;50.826;4.356;2023-09-19T08:05:52;10.60;;;2.60;;
25627;SDS011;40915;50.826;4.356;2023-09-19T08:08:18;13.20;;;2.42;;
25627;SDS011;40915;50.826;4.356;2023-09-19T08:10:45;10.70;;;2.45;;
25627;SDS011;40915;50.826;4.356;2023-09-19T08:13:14;19.08;;;3.03;;
25627;SDS011;40915;50.826;4.356;2023-09-19T08:15:44;12.88;;;2.33;;
25627;SDS011;40915;50.826;4.356;2023-09-19T08:18:10;10.43;;;2.65;;
25627;SDS011;40915;50.826;4.356;2023-09-19T08:20:37;11.90;;;2.40;;
25627;SDS011;40915;50.826;4.356;2023-09-19T08:23:03;17.75;;;6.15;;
25627;SDS011;40915;50.826;4.356;2023-09-19T08:25:29;9.90;;;2.47;;
25627;SDS011;40915;50.826;4.356;2023-09-19T08:27:55;12.50;;;2.97;;
25627;SDS011;40915;50.826;4.356;2023-09-19T08:30:25;12.63;;;2.72;;
25627;SDS011;40915;50.826;4.356;2023-09-19T08:32:58;15.02;;;2.80;;
25627;SDS011;40915;50.826;4.356;2023-09-19T08:35:25;7.68;;;2.42;;
25627;SDS011;40915;50.826;4.356;2023-09-19T08:37:51;14.27;;;2.85;;
25627;SDS011;40915;50.826;4.356;2023-09-19T08:40:16;9.68;;;2.58;;
25627;SDS011;40915;50.826;4.356;2023-09-19T08:42:52;9.30;;;2.90;;
25627;SDS011;40915;50.826;4.356;2023-09-19T08:45:24;10.43;;;2.30;;
25627;SDS011;40915;50.826;4.356;2023-09-19T08:50:43;13.05;;;2.65;;
25627;SDS011;40915;50.826;4.356;2023-09-19T08:53:20;9.52;;;2.38;;
25627;SDS011;40915;50.826;4.356;2023-09-19T08:55:59;9.05;;;2.03;;
25627;SDS011;40915;50.826;4.356;2023-09-19T08:58:41;11.20;;;2.80;;
25627;SDS011;40915;50.826;4.356;2023-09-19T09:01:32;7.80;;;2.17;;
25627;SDS011;40915;50.826;4.356;2023-09-19T09:03:58;14.02;;;2.63;;
25627;SDS011;40915;50.826;4.356;2023-09-19T09:06:25;10.93;;;2.15;;
25627;SDS011;40915;50.826;4.356;2023-09-19T09:08:53;7.22;;;2.08;;
25627;SDS011;40915;50.826;4.356;2023-09-19T09:11:19;13.50;;;2.10;;
25627;SDS011;40915;50.826;4.356;2023-09-19T09:13:46;9.45;;;2.17;;
25627;SDS011;40915;50.826;4.356;2023-09-19T09:16:12;10.10;;;2.08;;
25627;SDS011;40915;50.826;4.356;2023-09-19T09:18:39;15.10;;;2.67;;
25627;SDS011;40915;50.826;4.356;2023-09-19T09:21:05;8.57;;;1.83;;
25627;SDS011;40915;50.826;4.356;2023-09-19T09:23:31;6.57;;;1.92;;
25627;SDS011;40915;50.826;4.356;2023-09-19T09:25:57;14.70;;;2.25;;
25627;SDS011;40915;50.826;4.356;2023-09-19T09:28:31;6.45;;;2.05;;
25627;SDS011;40915;50.826;4.356;2023-09-19T09:30:59;9.48;;;1.83;;
25627;SDS011;40915;50.826;4.356;2023-09-19T09:33:26;9.48;;;2.00;;
25627;SDS011;40915;50.826;4.356;2023-09-19T09:38:25;9.05;;;2.05;;
25627;SDS011;40915;50.826;4.356;2023-09-19T09:40:56;9.50;;;2.22;;
25627;SDS011;40915;50.826;4.356;2023-09-19T09:46:08;9.70;;;1.88;;
25627;SDS011;40915;50.826;4.356;2023-09-19T09:48:47;7.50;;;2.00;;
25627;SDS011;40915;50.826;4.356;2023-09-19T09:51:44;9.45;;;1.85;;
25627;SDS011;40915;50.826;4.356;2023-09-19T09:55:00;6.68;;;1.75;;
25627;SDS011;40915;50.826;4.356;2023-09-19T09:57:33;8.75;;;1.88;;
25627;SDS011;40915;50.826;4.356;2023-09-19T10:00:00;8.00;;;1.80;;
25627;SDS011;40915;50.826;4.356;2023-09-19T10:02:39;5.97;;;1.70;;
25627;SDS011;40915;50.826;4.356;2023-09-19T10:05:13;8.35;;;2.33;;
25627;SDS011;40915;50.826;4.356;2023-09-19T10:07:52;9.00;;;2.22;;
25627;SDS011;40915;50.826;4.356;2023-09-19T10:10:31;12.50;;;2.38;;
25627;SDS011;40915;50.826;4.356;2023-09-19T10:13:06;10.55;;;2.10;;
25627;SDS011;40915;50.826;4.356;2023-09-19T10:15:37;6.53;;;1.58;;
25627;SDS011;40915;50.826;4.356;2023-09-19T10:18:05;10.23;;;2.13;;
25627;SDS011;40915;50.826;4.356;2023-09-19T10:20:33;7.40;;;1.80;;
25627;SDS011;40915;50.826;4.356;2023-09-19T10:23:04;5.43;;;1.50;;
25627;SDS011;40915;50.826;4.356;2023-09-19T10:25:38;6.20;;;1.92;;
25627;SDS011;40915;50.826;4.356;2023-09-19T10:28:06;8.73;;;1.48;;
25627;SDS011;40915;50.826;4.356;2023-09-19T10:30:45;7.68;;;1.63;;
25627;SDS011;40915;50.826;4.356;2023-09-19T10:33:21;7.25;;;1.55;;
25627;SDS011;40915;50.826;4.356;2023-09-19T10:35:51;8.18;;;1.92;;
25627;SDS011;40915;50.826;4.356;2023-09-19T10:38:24;6.63;;;1.58;;
25627;SDS011;40915;50.826;4.356;2023-09-19T10:40:53;8.68;;;1.75;;
25627;SDS011;40915;50.826;4.356;2023-09-19T10:43:25;8.88;;;1.88;;
25627;SDS011;40915;50.826;4.356;2023-09-19T10:45:54;6.75;;;1.40;;
25627;SDS011;40915;50.826;4.356;2023-09-19T10:48:26;6.25;;;1.20;;
25627;SDS011;40915;50.826;4.356;2023-09-19T10:50:56;5.07;;;1.30;;
25627;SDS011;40915;50.826;4.356;2023-09-19T10:53:29;5.63;;;1.48;;
25627;SDS011;40915;50.826;4.356;2023-09-19T10:56:31;5.72;;;1.45;;
25627;SDS011;40915;50.826;4.356;2023-09-19T10:59:10;6.35;;;1.80;;
25627;SDS011;40915;50.826;4.356;2023-09-19T11:01:48;8.65;;;1.70;;
25627;SDS011;40915;50.826;4.356;2023-09-19T11:04:26;8.23;;;1.38;;
25627;SDS011;40915;50.826;4.356;2023-09-19T11:07:12;6.60;;;1.20;;
25627;SDS011;40915;50.826;4.356;2023-09-19T11:14:54;7.05;;;1.35;;
25627;SDS011;40915;50.826;4.356;2023-09-19T11:30:50;5.53;;;1.10;;
25627;SDS011;40915;50.826;4.356;2023-09-19T11:33:29;3.05;;;1.20;;
25627;SDS011;40915;50.826;4.356;2023-09-19T11:43:46;10.27;;;1.73;;
25627;SDS011;40915;50.826;4.356;2023-09-19T11:46:16;4.80;;;1.05;;
25627;SDS011;40915;50.826;4.356;2023-09-19T11:48:47;4.85;;;1.20;;
25627;SDS011;40915;50.826;4.356;2023-09-19T11:51:24;4.90;;;1.63;;
25627;SDS011;40915;50.826;4.356;2023-09-19T11:53:53;6.35;;;1.52;;
25627;SDS011;40915;50.826;4.356;2023-09-19T11:56:21;4.93;;;1.17;;
25627;SDS011;40915;50.826;4.356;2023-09-19T11:58:50;5.18;;;1.02;;
25627;SDS011;40915;50.826;4.356;2023-09-19T12:01:21;6.95;;;1.20;;
25627;SDS011;40915;50.826;4.356;2023-09-19T12:03:59;4.85;;;1.10;;
25627;SDS011;40915;50.826;4.356;2023-09-19T12:06:27;3.65;;;1.20;;
25627;SDS011;40915;50.826;4.356;2023-09-19T12:08:54;3.67;;;1.15;;
25627;SDS011;40915;50.826;4.356;2023-09-19T12:11:22;6.13;;;1.60;;
25627;SDS011;40915;50.826;4.356;2023-09-19T12:13:48;3.45;;;1.13;;
25627;SDS011;40915;50.826;4.356;2023-09-19T12:16:16;4.65;;;1.17;;
25627;SDS011;40915;50.826;4.356;2023-09-19T12:18:44;10.70;;;1.88;;
25627;SDS011;40915;50.826;4.356;2023-09-19T12:21:30;5.18;;;1.30;;
25627;SDS011;40915;50.826;4.356;2023-09-19T12:24:11;11.70;;;1.60;;
25627;SDS011;40915;50.826;4.356;2023-09-19T12:26:45;5.75;;;1.20;;
25627;SDS011;40915;50.826;4.356;2023-09-19T12:29:17;3.92;;;1.23;;
25627;SDS011;40915;50.826;4.356;2023-09-19T12:31:47;9.80;;;1.58;;
25627;SDS011;40915;50.826;4.356;2023-09-19T12:34:25;4.32;;;1.40;;
25627;SDS011;40915;50.826;4.356;2023-09-19T12:40:03;6.07;;;2.10;;
25627;SDS011;40915;50.826;4.356;2023-09-19T12:42:53;6.25;;;1.33;;
25627;SDS011;40915;50.826;4.356;2023-09-19T12:45:32;7.78;;;1.35;;
25627;SDS011;40915;50.826;4.356;2023-09-19T12:51:02;9.02;;;1.40;;
25627;SDS011;40915;50.826;4.356;2023-09-19T12:53:36;5.10;;;1.20;;
25627;SDS011;40915;50.826;4.356;2023-09-19T12:56:08;4.88;;;1.40;;
25627;SDS011;40915;50.826;4.356;2023-09-19T12:58:47;6.75;;;1.35;;
25627;SDS011;40915;50.826;4.356;2023-09-19T13:01:28;4.68;;;1.10;;
25627;SDS011;40915;50.826;4.356;2023-09-19T13:04:13;5.72;;;1.27;;
25627;SDS011;40915;50.826;4.356;2023-09-19T13:06:46;5.10;;;1.35;;
25627;SDS011;40915;50.826;4.356;2023-09-19T13:09:16;5.50;;;1.50;;
25627;SDS011;40915;50.826;4.356;2023-09-19T13:11:42;5.22;;;1.25;;
25627;SDS011;40915;50.826;4.356;2023-09-19T13:17:01;4.30;;;1.20;;
25627;SDS011;40915;50.826;4.356;2023-09-19T13:19:44;5.70;;;1.25;;
25627;SDS011;40915;50.826;4.356;2023-09-19T13:25:08;3.35;;;1.02;;
25627;SDS011;40915;50.826;4.356;2023-09-19T13:27:48;7.85;;;1.30;;
25627;SDS011;40915;50.826;4.356;2023-09-19T13:30:21;6.28;;;1.25;;
25627;SDS011;40915;50.826;4.356;2023-09-19T13:32:52;6.20;;;1.20;;
25627;SDS011;40915;50.826;4.356;2023-09-19T13:35:29;5.95;;;1.13;;
25627;SDS011;40915;50.826;4.356;2023-09-19T13:37:54;6.95;;;1.20;;
25627;SDS011;40915;50.826;4.356;2023-09-19T13:40:20;3.55;;;1.10;;
25627;SDS011;40915;50.826;4.356;2023-09-19T13:42:45;7.40;;;1.30;;
25627;SDS011;40915;50.826;4.356;2023-09-19T13:45:11;4.45;;;1.10;;
25627;SDS011;40915;50.826;4.356;2023-09-19T13:47:37;5.90;;;1.48;;
25627;SDS011;40915;50.826;4.356;2023-09-19T13:50:04;6.00;;;1.35;;
25627;SDS011;40915;50.826;4.356;2023-09-19T13:52:31;5.20;;;1.80;;
25627;SDS011;40915;50.826;4.356;2023-09-19T13:54:57;7.90;;;1.27;;
25627;SDS011;40915;50.826;4.356;2023-09-19T13:57:23;4.63;;;1.60;;
25627;SDS011;40915;50.826;4.356;2023-09-19T13:59:50;4.57;;;1.60;;
25627;SDS011;40915;50.826;4.356;2023-09-19T14:02:17;4.75;;;1.40;;
25627;SDS011;40915;50.826;4.356;2023-09-19T14:04:43;6.68;;;1.45;;
25627;SDS011;40915;50.826;4.356;2023-09-19T14:07:10;5.63;;;1.70;;
25627;SDS011;40915;50.826;4.356;2023-09-19T14:09:36;5.32;;;1.83;;
25627;SDS011;40915;50.826;4.356;2023-09-19T14:12:02;10.88;;;1.85;;
25627;SDS011;40915;50.826;4.356;2023-09-19T14:14:28;5.60;;;1.55;;
25627;SDS011;40915;50.826;4.356;2023-09-19T14:16:53;6.72;;;1.50;;
25627;SDS011;40915;50.826;4.356;2023-09-19T14:19:20;6.88;;;1.35;;
25627;SDS011;40915;50.826;4.356;2023-09-19T14:21:46;3.95;;;1.55;;
25627;SDS011;40915;50.826;4.356;2023-09-19T14:24:16;6.75;;;1.52;;
25627;SDS011;40915;50.826;4.356;2023-09-19T14:26:42;8.20;;;1.50;;
25627;SDS011;40915;50.826;4.356;2023-09-19T14:29:08;9.65;;;2.00;;
25627;SDS011;40915;50.826;4.356;2023-09-19T14:31:36;7.30;;;1.58;;
25627;SDS011;40915;50.826;4.356;2023-09-19T14:34:05;10.70;;;1.73;;
25627;SDS011;40915;50.826;4.356;2023-09-19T14:36:31;4.32;;;1.35;;
25627;SDS011;40915;50.826;4.356;2023-09-19T14:38:58;4.57;;;1.30;;
25627;SDS011;40915;50.826;4.356;2023-09-19T14:41:24;6.05;;;1.60;;
25627;SDS011;40915;50.826;4.356;2023-09-19T14:43:50;6.22;;;1.55;;
25627;SDS011;40915;50.826;4.356;2023-09-19T14:46:17;10.48;;;2.03;;
25627;SDS011;40915;50.826;4.356;2023-09-19T14:48:43;4.47;;;1.75;;
25627;SDS011;40915;50.826;4.356;2023-09-19T14:51:11;4.25;;;1.48;;
25627;SDS011;40915;50.826;4.356;2023-09-19T14:53:36;5.63;;;1.70;;
25627;SDS011;40915;50.826;4.356;2023-09-19T14:56:07;5.10;;;1.48;;
25627;SDS011;40915;50.826;4.356;2023-09-19T14:58:34;6.70;;;1.73;;
25627;SDS011;40915;50.826;4.356;2023-09-19T15:01:04;7.70;;;1.67;;
25627;SDS011;40915;50.826;4.356;2023-09-19T15:03:31;6.88;;;1.55;;
25627;SDS011;40915;50.826;4.356;2023-09-19T15:06:03;3.83;;;1.45;;
25627;SDS011;40915;50.826;4.356;2023-09-19T15:08:31;5.03;;;1.58;;
25627;SDS011;40915;50.826;4.356;2023-09-19T15:10:59;6.78;;;1.80;;
25627;SDS011;40915;50.826;4.356;2023-09-19T15:13:28;7.68;;;1.60;;
25627;SDS011;40915;50.826;4.356;2023-09-19T15:16:05;4.95;;;1.70;;
25627;SDS011;40915;50.826;4.356;2023-09-19T15:18:35;6.15;;;1.73;;
25627;SDS011;40915;50.826;4.356;2023-09-19T15:21:08;6.60;;;1.60;;
25627;SDS011;40915;50.826;4.356;2023-09-19T15:23:37;7.18;;;1.75;;
25627;SDS011;40915;50.826;4.356;2023-09-19T15:26:04;6.28;;;1.63;;
25627;SDS011;40915;50.826;4.356;2023-09-19T15:28:31;6.53;;;1.60;;
25627;SDS011;40915;50.826;4.356;2023-09-19T15:31:09;5.63;;;1.65;;
25627;SDS011;40915;50.826;4.356;2023-09-19T15:33:35;7.07;;;1.90;;
25627;SDS011;40915;50.826;4.356;2023-09-19T15:36:05;4.57;;;1.73;;
25627;SDS011;40915;50.826;4.356;2023-09-19T15:41:24;7.22;;;1.73;;
25627;SDS011;40915;50.826;4.356;2023-09-19T15:43:52;7.53;;;2.00;;
25627;SDS011;40915;50.826;4.356;2023-09-19T15:46:18;6.28;;;1.55;;
25627;SDS011;40915;50.826;4.356;2023-09-19T15:48:45;4.80;;;1.48;;
25627;SDS011;40915;50.826;4.356;2023-09-19T15:51:11;4.97;;;1.38;;
25627;SDS011;40915;50.826;4.356;2023-09-19T15:53:50;5.68;;;1.48;;
25627;SDS011;40915;50.826;4.356;2023-09-19T15:56:17;15.30;;;1.95;;
25627;SDS011;40915;50.826;4.356;2023-09-19T15:58:46;4.75;;;1.50;;
25627;SDS011;40915;50.826;4.356;2023-09-19T16:01:13;6.30;;;1.67;;
25627;SDS011;40915;50.826;4.356;2023-09-19T16:03:43;4.03;;;1.50;;